sensor_id;sensor_type;location;lat;lon;timestamp;temperature;humidity
71206;SHT31;58935;54.498;18.544;2022-12-01T00:01:30;4.04;72.90
71206;SHT31;58935;54.498;18.544;2022-12-01T00:03:55;4.05;72.92
71206;SHT31;58935;54.498;18.544;2022-12-01T00:06:20;4.09;72.95
71206;SHT31;58935;54.498;18.544;2022-12-01T00:08:47;4.13;72.93
71206;SHT31;58935;54.498;18.544;2022-12-01T00:11:17;4.15;72.98
71206;SHT31;58935;54.498;18.544;2022-12-01T00:13:44;4.16;72.84
71206;SHT31;58935;54.498;18.544;2022-12-01T00:16:11;4.14;72.88
71206;SHT31;58935;54.498;18.544;2022-12-01T00:18:37;4.08;72.82
71206;SHT31;58935;54.498;18.544;2022-12-01T00:21:03;4.03;72.71
71206;SHT31;58935;54.498;18.544;2022-12-01T00:23:28;3.97;72.48
71206;SHT31;58935;54.498;18.544;2022-12-01T00:26:01;3.94;72.41
71206;SHT31;58935;54.498;18.544;2022-12-01T00:28:28;3.93;72.40
71206;SHT31;58935;54.498;18.544;2022-12-01T00:30:54;3.92;72.05
71206;SHT31;58935;54.498;18.544;2022-12-01T00:33:19;3.90;71.92
71206;SHT31;58935;54.498;18.544;2022-12-01T00:35:44;3.89;72.09
71206;SHT31;58935;54.498;18.544;2022-12-01T00:38:09;3.88;71.89
71206;SHT31;58935;54.498;18.544;2022-12-01T00:40:35;3.85;71.81
71206;SHT31;58935;54.498;18.544;2022-12-01T00:43:00;3.82;72.06
71206;SHT31;58935;54.498;18.544;2022-12-01T00:45:26;3.80;72.31
71206;SHT31;58935;54.498;18.544;2022-12-01T00:47:51;3.78;72.40
71206;SHT31;58935;54.498;18.544;2022-12-01T00:50:19;3.77;72.52
71206;SHT31;58935;54.498;18.544;2022-12-01T00:52:44;3.77;72.61
71206;SHT31;58935;54.498;18.544;2022-12-01T00:55:09;3.77;72.57
71206;SHT31;58935;54.498;18.544;2022-12-01T00:57:35;3.79;72.60
71206;SHT31;58935;54.498;18.544;2022-12-01T01:00:00;3.79;72.46
71206;SHT31;58935;54.498;18.544;2022-12-01T01:02:25;3.79;72.34
71206;SHT31;58935;54.498;18.544;2022-12-01T01:04:51;3.76;72.30
71206;SHT31;58935;54.498;18.544;2022-12-01T01:07:16;3.73;72.46
71206;SHT31;58935;54.498;18.544;2022-12-01T01:09:41;3.70;72.52
71206;SHT31;58935;54.498;18.544;2022-12-01T01:12:07;3.66;72.61
71206;SHT31;58935;54.498;18.544;2022-12-01T01:14:32;3.63;72.68
71206;SHT31;58935;54.498;18.544;2022-12-01T01:16:57;3.61;72.88
71206;SHT31;58935;54.498;18.544;2022-12-01T01:19:23;3.60;72.91
71206;SHT31;58935;54.498;18.544;2022-12-01T01:21:48;3.61;73.00
71206;SHT31;58935;54.498;18.544;2022-12-01T01:24:14;3.61;73.00
71206;SHT31;58935;54.498;18.544;2022-12-01T01:26:39;3.64;73.09
71206;SHT31;58935;54.498;18.544;2022-12-01T01:29:05;3.67;73.18
71206;SHT31;58935;54.498;18.544;2022-12-01T01:31:32;3.69;73.19
71206;SHT31;58935;54.498;18.544;2022-12-01T01:33:58;3.70;73.32
71206;SHT31;58935;54.498;18.544;2022-12-01T01:36:24;3.70;73.30
71206;SHT31;58935;54.498;18.544;2022-12-01T01:38:52;3.71;73.30
71206;SHT31;58935;54.498;18.544;2022-12-01T01:41:19;3.72;73.16
71206;SHT31;58935;54.498;18.544;2022-12-01T01:43:49;3.73;73.12
71206;SHT31;58935;54.498;18.544;2022-12-01T01:46:18;3.76;72.90
71206;SHT31;58935;54.498;18.544;2022-12-01T01:48:49;3.78;72.71
71206;SHT31;58935;54.498;18.544;2022-12-01T01:51:21;3.80;72.54
71206;SHT31;58935;54.498;18.544;2022-12-01T01:53:52;3.81;72.54
71206;SHT31;58935;54.498;18.544;2022-12-01T01:56:20;3.80;72.55
71206;SHT31;58935;54.498;18.544;2022-12-01T01:58:47;3.79;72.63
71206;SHT31;58935;54.498;18.544;2022-12-01T02:01:13;3.77;72.76
71206;SHT31;58935;54.498;18.544;2022-12-01T02:03:38;3.76;72.74
71206;SHT31;58935;54.498;18.544;2022-12-01T02:06:05;3.74;72.69
71206;SHT31;58935;54.498;18.544;2022-12-01T02:08:36;3.73;72.65
71206;SHT31;58935;54.498;18.544;2022-12-01T02:11:04;3.72;72.65
71206;SHT31;58935;54.498;18.544;2022-12-01T02:13:39;3.73;72.81
71206;SHT31;58935;54.498;18.544;2022-12-01T02:16:21;3.76;72.86
71206;SHT31;58935;54.498;18.544;2022-12-01T02:19:07;3.78;72.81
71206;SHT31;58935;54.498;18.544;2022-12-01T02:22:01;3.78;72.88
71206;SHT31;58935;54.498;18.544;2022-12-01T02:27:06;3.79;72.88
71206;SHT31;58935;54.498;18.544;2022-12-01T02:33:12;3.71;72.83
71206;SHT31;58935;54.498;18.544;2022-12-01T02:34:58;3.72;72.91
71206;SHT31;58935;54.498;18.544;2022-12-01T02:37:32;3.75;72.97
71206;SHT31;58935;54.498;18.544;2022-12-01T02:41:07;3.81;72.96
71206;SHT31;58935;54.498;18.544;2022-12-01T02:42:56;3.83;72.94
71206;SHT31;58935;54.498;18.544;2022-12-01T02:48:01;3.85;72.80
71206;SHT31;58935;54.498;18.544;2022-12-01T02:50:33;3.86;72.77
71206;SHT31;58935;54.498;18.544;2022-12-01T02:53:02;3.83;72.72
71206;SHT31;58935;54.498;18.544;2022-12-01T02:55:30;3.81;72.76
71206;SHT31;58935;54.498;18.544;2022-12-01T02:57:55;3.80;72.80
71206;SHT31;58935;54.498;18.544;2022-12-01T03:00:20;3.79;72.87
71206;SHT31;58935;54.498;18.544;2022-12-01T03:05:49;3.86;72.69
71206;SHT31;58935;54.498;18.544;2022-12-01T03:08:31;3.89;72.30
71206;SHT31;58935;54.498;18.544;2022-12-01T03:11:10;3.90;72.17
71206;SHT31;58935;54.498;18.544;2022-12-01T03:13:54;3.89;72.05
71206;SHT31;58935;54.498;18.544;2022-12-01T03:19:05;3.89;71.98
71206;SHT31;58935;54.498;18.544;2022-12-01T03:21:38;3.89;71.98
71206;SHT31;58935;54.498;18.544;2022-12-01T03:24:13;3.89;71.78
71206;SHT31;58935;54.498;18.544;2022-12-01T03:26:41;3.88;71.70
71206;SHT31;58935;54.498;18.544;2022-12-01T03:31:43;3.83;71.60
71206;SHT31;58935;54.498;18.544;2022-12-01T03:36:46;3.87;71.48
71206;SHT31;58935;54.498;18.544;2022-12-01T03:39:21;3.89;71.19
71206;SHT31;58935;54.498;18.544;2022-12-01T03:41:53;3.87;71.23
71206;SHT31;58935;54.498;18.544;2022-12-01T03:44:24;3.86;71.33
71206;SHT31;58935;54.498;18.544;2022-12-01T03:46:56;3.84;71.49
71206;SHT31;58935;54.498;18.544;2022-12-01T03:49:25;3.82;71.54
71206;SHT31;58935;54.498;18.544;2022-12-01T03:54:32;3.79;71.62
71206;SHT31;58935;54.498;18.544;2022-12-01T03:57:04;3.79;71.61
71206;SHT31;58935;54.498;18.544;2022-12-01T03:59:40;3.81;71.52
71206;SHT31;58935;54.498;18.544;2022-12-01T04:02:12;3.78;71.38
71206;SHT31;58935;54.498;18.544;2022-12-01T04:04:38;3.76;71.45
71206;SHT31;58935;54.498;18.544;2022-12-01T04:07:03;3.76;71.43
71206;SHT31;58935;54.498;18.544;2022-12-01T04:09:29;3.74;71.38
71206;SHT31;58935;54.498;18.544;2022-12-01T04:11:54;3.73;71.48
71206;SHT31;58935;54.498;18.544;2022-12-01T04:14:22;3.73;71.47
71206;SHT31;58935;54.498;18.544;2022-12-01T04:16:48;3.73;71.51
71206;SHT31;58935;54.498;18.544;2022-12-01T04:19:15;3.74;71.51
71206;SHT31;58935;54.498;18.544;2022-12-01T04:21:40;3.76;71.58
71206;SHT31;58935;54.498;18.544;2022-12-01T04:24:06;3.78;71.61
71206;SHT31;58935;54.498;18.544;2022-12-01T04:26:33;3.81;71.49
71206;SHT31;58935;54.498;18.544;2022-12-01T04:29:02;3.82;71.46
71206;SHT31;58935;54.498;18.544;2022-12-01T04:31:29;3.81;71.49
71206;SHT31;58935;54.498;18.544;2022-12-01T04:33:55;3.81;71.49
71206;SHT31;58935;54.498;18.544;2022-12-01T04:36:22;3.81;71.42
71206;SHT31;58935;54.498;18.544;2022-12-01T04:38:48;3.79;71.28
71206;SHT31;58935;54.498;18.544;2022-12-01T04:41:14;3.76;71.30
71206;SHT31;58935;54.498;18.544;2022-12-01T04:43:39;3.75;71.30
71206;SHT31;58935;54.498;18.544;2022-12-01T04:46:07;3.72;71.03
71206;SHT31;58935;54.498;18.544;2022-12-01T04:48:33;3.72;71.10
71206;SHT31;58935;54.498;18.544;2022-12-01T04:51:00;3.71;71.10
71206;SHT31;58935;54.498;18.544;2022-12-01T04:53:26;3.69;71.16
71206;SHT31;58935;54.498;18.544;2022-12-01T04:55:52;3.71;71.21
71206;SHT31;58935;54.498;18.544;2022-12-01T04:58:17;3.70;71.11
71206;SHT31;58935;54.498;18.544;2022-12-01T05:00:42;3.69;71.19
71206;SHT31;58935;54.498;18.544;2022-12-01T05:03:07;3.71;71.37
71206;SHT31;58935;54.498;18.544;2022-12-01T05:05:35;3.71;71.45
71206;SHT31;58935;54.498;18.544;2022-12-01T05:08:00;3.72;71.48
71206;SHT31;58935;54.498;18.544;2022-12-01T05:10:28;3.70;71.36
71206;SHT31;58935;54.498;18.544;2022-12-01T05:12:54;3.70;71.41
71206;SHT31;58935;54.498;18.544;2022-12-01T05:15:21;3.68;71.16
71206;SHT31;58935;54.498;18.544;2022-12-01T05:17:48;3.64;71.08
71206;SHT31;58935;54.498;18.544;2022-12-01T05:20:17;3.63;71.17
71206;SHT31;58935;54.498;18.544;2022-12-01T05:22:47;3.63;71.27
71206;SHT31;58935;54.498;18.544;2022-12-01T05:25:17;3.65;71.33
71206;SHT31;58935;54.498;18.544;2022-12-01T05:27:43;3.69;71.35
71206;SHT31;58935;54.498;18.544;2022-12-01T05:30:10;3.70;71.09
71206;SHT31;58935;54.498;18.544;2022-12-01T05:32:36;3.69;71.19
71206;SHT31;58935;54.498;18.544;2022-12-01T05:35:03;3.68;71.33
71206;SHT31;58935;54.498;18.544;2022-12-01T05:37:29;3.67;71.39
71206;SHT31;58935;54.498;18.544;2022-12-01T05:39:58;3.65;71.41
71206;SHT31;58935;54.498;18.544;2022-12-01T05:42:28;3.62;71.53
71206;SHT31;58935;54.498;18.544;2022-12-01T05:44:53;3.64;71.63
71206;SHT31;58935;54.498;18.544;2022-12-01T05:47:18;3.69;71.69
71206;SHT31;58935;54.498;18.544;2022-12-01T05:49:44;3.71;71.68
71206;SHT31;58935;54.498;18.544;2022-12-01T05:52:09;3.77;71.67
71206;SHT31;58935;54.498;18.544;2022-12-01T05:54:35;3.81;71.57
71206;SHT31;58935;54.498;18.544;2022-12-01T05:57:02;3.84;71.50
71206;SHT31;58935;54.498;18.544;2022-12-01T05:59:28;3.85;71.50
71206;SHT31;58935;54.498;18.544;2022-12-01T06:01:53;3.86;71.46
71206;SHT31;58935;54.498;18.544;2022-12-01T06:04:21;3.84;71.33
71206;SHT31;58935;54.498;18.544;2022-12-01T06:06:46;3.81;71.23
71206;SHT31;58935;54.498;18.544;2022-12-01T06:09:11;3.78;71.30
71206;SHT31;58935;54.498;18.544;2022-12-01T06:11:37;3.78;71.31
71206;SHT31;58935;54.498;18.544;2022-12-01T06:14:02;3.78;71.46
71206;SHT31;58935;54.498;18.544;2022-12-01T06:16:27;3.80;71.43
71206;SHT31;58935;54.498;18.544;2022-12-01T06:18:52;3.80;71.37
71206;SHT31;58935;54.498;18.544;2022-12-01T06:21:18;3.78;71.53
71206;SHT31;58935;54.498;18.544;2022-12-01T06:23:43;3.79;71.60
71206;SHT31;58935;54.498;18.544;2022-12-01T06:26:08;3.80;71.71
71206;SHT31;58935;54.498;18.544;2022-12-01T06:28:33;3.81;71.63
71206;SHT31;58935;54.498;18.544;2022-12-01T06:30:59;3.80;71.67
71206;SHT31;58935;54.498;18.544;2022-12-01T06:33:24;3.78;71.70
71206;SHT31;58935;54.498;18.544;2022-12-01T06:35:55;3.74;71.77
71206;SHT31;58935;54.498;18.544;2022-12-01T06:38:25;3.73;71.78
71206;SHT31;58935;54.498;18.544;2022-12-01T06:40:54;3.70;71.81
71206;SHT31;58935;54.498;18.544;2022-12-01T06:43:19;3.73;71.76
71206;SHT31;58935;54.498;18.544;2022-12-01T06:45:44;3.74;71.65
71206;SHT31;58935;54.498;18.544;2022-12-01T06:48:10;3.75;71.63
71206;SHT31;58935;54.498;18.544;2022-12-01T06:50:36;3.73;71.76
71206;SHT31;58935;54.498;18.544;2022-12-01T06:53:02;3.74;71.85
71206;SHT31;58935;54.498;18.544;2022-12-01T06:55:27;3.76;71.88
71206;SHT31;58935;54.498;18.544;2022-12-01T06:57:52;3.78;71.95
71206;SHT31;58935;54.498;18.544;2022-12-01T07:00:18;3.82;72.00
71206;SHT31;58935;54.498;18.544;2022-12-01T07:02:44;3.85;71.94
71206;SHT31;58935;54.498;18.544;2022-12-01T07:05:09;3.86;71.71
71206;SHT31;58935;54.498;18.544;2022-12-01T07:07:35;3.83;71.66
71206;SHT31;58935;54.498;18.544;2022-12-01T07:10:01;3.79;71.57
71206;SHT31;58935;54.498;18.544;2022-12-01T07:12:28;3.76;71.70
71206;SHT31;58935;54.498;18.544;2022-12-01T07:14:54;3.74;71.70
71206;SHT31;58935;54.498;18.544;2022-12-01T07:17:19;3.72;71.79
71206;SHT31;58935;54.498;18.544;2022-12-01T07:19:45;3.68;71.81
71206;SHT31;58935;54.498;18.544;2022-12-01T07:22:10;3.66;71.76
71206;SHT31;58935;54.498;18.544;2022-12-01T07:24:35;3.63;71.61
71206;SHT31;58935;54.498;18.544;2022-12-01T07:27:01;3.59;71.64
71206;SHT31;58935;54.498;18.544;2022-12-01T07:29:26;3.58;71.77
71206;SHT31;58935;54.498;18.544;2022-12-01T07:31:52;3.61;71.78
71206;SHT31;58935;54.498;18.544;2022-12-01T07:34:18;3.66;71.76
71206;SHT31;58935;54.498;18.544;2022-12-01T07:36:46;3.69;71.59
71206;SHT31;58935;54.498;18.544;2022-12-01T07:39:13;3.72;71.69
71206;SHT31;58935;54.498;18.544;2022-12-01T07:41:39;3.76;71.53
71206;SHT31;58935;54.498;18.544;2022-12-01T07:44:08;3.76;71.52
71206;SHT31;58935;54.498;18.544;2022-12-01T07:46:34;3.72;71.45
71206;SHT31;58935;54.498;18.544;2022-12-01T07:48:59;3.69;71.51
71206;SHT31;58935;54.498;18.544;2022-12-01T07:51:27;3.69;71.53
71206;SHT31;58935;54.498;18.544;2022-12-01T07:53:52;3.71;71.51
71206;SHT31;58935;54.498;18.544;2022-12-01T07:56:21;3.73;71.49
71206;SHT31;58935;54.498;18.544;2022-12-01T07:58:47;3.76;71.31
71206;SHT31;58935;54.498;18.544;2022-12-01T08:01:14;3.76;71.30
71206;SHT31;58935;54.498;18.544;2022-12-01T08:03:40;3.81;71.40
71206;SHT31;58935;54.498;18.544;2022-12-01T08:06:07;3.85;71.14
71206;SHT31;58935;54.498;18.544;2022-12-01T08:08:33;3.89;71.17
71206;SHT31;58935;54.498;18.544;2022-12-01T08:11:00;3.94;71.24
71206;SHT31;58935;54.498;18.544;2022-12-01T08:13:27;3.97;71.19
71206;SHT31;58935;54.498;18.544;2022-12-01T08:15:52;4.00;71.04
71206;SHT31;58935;54.498;18.544;2022-12-01T08:18:18;3.99;70.63
71206;SHT31;58935;54.498;18.544;2022-12-01T08:20:43;3.97;70.54
71206;SHT31;58935;54.498;18.544;2022-12-01T08:23:08;3.98;70.60
71206;SHT31;58935;54.498;18.544;2022-12-01T08:25:34;4.00;70.43
71206;SHT31;58935;54.498;18.544;2022-12-01T08:27:59;3.99;70.39
71206;SHT31;58935;54.498;18.544;2022-12-01T08:30:25;4.00;70.35
71206;SHT31;58935;54.498;18.544;2022-12-01T08:32:53;3.99;70.44
71206;SHT31;58935;54.498;18.544;2022-12-01T08:35:19;4.07;70.57
71206;SHT31;58935;54.498;18.544;2022-12-01T08:37:50;4.16;70.36
71206;SHT31;58935;54.498;18.544;2022-12-01T08:40:16;4.19;70.00
71206;SHT31;58935;54.498;18.544;2022-12-01T08:42:42;4.17;69.84
71206;SHT31;58935;54.498;18.544;2022-12-01T08:45:07;4.17;69.76
71206;SHT31;58935;54.498;18.544;2022-12-01T08:47:33;4.15;69.57
71206;SHT31;58935;54.498;18.544;2022-12-01T08:49:58;4.14;69.54
71206;SHT31;58935;54.498;18.544;2022-12-01T08:52:24;4.13;69.57
71206;SHT31;58935;54.498;18.544;2022-12-01T08:54:52;4.11;69.63
71206;SHT31;58935;54.498;18.544;2022-12-01T08:57:17;4.10;69.56
71206;SHT31;58935;54.498;18.544;2022-12-01T08:59:42;4.12;69.67
71206;SHT31;58935;54.498;18.544;2022-12-01T09:02:10;4.19;69.70
71206;SHT31;58935;54.498;18.544;2022-12-01T09:04:39;4.30;69.70
71206;SHT31;58935;54.498;18.544;2022-12-01T09:07:05;4.40;69.48
71206;SHT31;58935;54.498;18.544;2022-12-01T09:09:33;4.48;69.13
71206;SHT31;58935;54.498;18.544;2022-12-01T09:12:01;4.55;68.93
71206;SHT31;58935;54.498;18.544;2022-12-01T09:14:27;4.60;68.51
71206;SHT31;58935;54.498;18.544;2022-12-01T09:16:53;4.65;68.30
71206;SHT31;58935;54.498;18.544;2022-12-01T09:19:18;4.68;68.26
71206;SHT31;58935;54.498;18.544;2022-12-01T09:21:45;4.72;68.14
71206;SHT31;58935;54.498;18.544;2022-12-01T09:24:13;4.73;67.78
71206;SHT31;58935;54.498;18.544;2022-12-01T09:26:39;4.75;67.80
71206;SHT31;58935;54.498;18.544;2022-12-01T09:29:06;4.77;67.43
71206;SHT31;58935;54.498;18.544;2022-12-01T09:31:33;4.77;67.18
71206;SHT31;58935;54.498;18.544;2022-12-01T09:34:00;4.76;67.29
71206;SHT31;58935;54.498;18.544;2022-12-01T09:36:29;4.78;67.33
71206;SHT31;58935;54.498;18.544;2022-12-01T09:38:56;4.81;67.35
71206;SHT31;58935;54.498;18.544;2022-12-01T09:41:27;4.85;67.38
71206;SHT31;58935;54.498;18.544;2022-12-01T09:43:57;4.87;67.18
71206;SHT31;58935;54.498;18.544;2022-12-01T09:46:28;4.92;67.09
71206;SHT31;58935;54.498;18.544;2022-12-01T09:49:01;4.97;67.00
71206;SHT31;58935;54.498;18.544;2022-12-01T09:51:30;5.02;66.99
71206;SHT31;58935;54.498;18.544;2022-12-01T09:54:02;5.08;66.85
71206;SHT31;58935;54.498;18.544;2022-12-01T09:56:29;5.11;66.55
71206;SHT31;58935;54.498;18.544;2022-12-01T09:59:07;5.08;66.12
71206;SHT31;58935;54.498;18.544;2022-12-01T10:01:43;5.07;66.26
71206;SHT31;58935;54.498;18.544;2022-12-01T10:07:02;5.16;66.22
71206;SHT31;58935;54.498;18.544;2022-12-01T10:14:35;5.21;65.74
71206;SHT31;58935;54.498;18.544;2022-12-01T10:17:08;5.22;65.86
71206;SHT31;58935;54.498;18.544;2022-12-01T10:19:49;5.26;65.56
71206;SHT31;58935;54.498;18.544;2022-12-01T10:24:53;5.25;65.53
71206;SHT31;58935;54.498;18.544;2022-12-01T10:27:30;5.26;65.54
71206;SHT31;58935;54.498;18.544;2022-12-01T10:35:05;5.32;65.28
71206;SHT31;58935;54.498;18.544;2022-12-01T10:37:35;5.28;65.29
71206;SHT31;58935;54.498;18.544;2022-12-01T10:40:02;5.26;65.30
71206;SHT31;58935;54.498;18.544;2022-12-01T10:45:06;5.21;65.27
71206;SHT31;58935;54.498;18.544;2022-12-01T10:50:20;5.16;65.69
71206;SHT31;58935;54.498;18.544;2022-12-01T10:52:53;5.19;65.54
71206;SHT31;58935;54.498;18.544;2022-12-01T10:55:26;5.21;65.46
71206;SHT31;58935;54.498;18.544;2022-12-01T10:57:56;5.20;65.53
71206;SHT31;58935;54.498;18.544;2022-12-01T11:00:27;5.17;65.68
71206;SHT31;58935;54.498;18.544;2022-12-01T11:02:58;5.14;65.84
71206;SHT31;58935;54.498;18.544;2022-12-01T11:05:25;5.11;66.01
71206;SHT31;58935;54.498;18.544;2022-12-01T11:07:52;5.10;65.98
71206;SHT31;58935;54.498;18.544;2022-12-01T11:10:18;5.08;66.02
71206;SHT31;58935;54.498;18.544;2022-12-01T11:12:54;5.13;66.24
71206;SHT31;58935;54.498;18.544;2022-12-01T11:15:23;5.19;66.16
71206;SHT31;58935;54.498;18.544;2022-12-01T11:25:27;5.12;65.01
71206;SHT31;58935;54.498;18.544;2022-12-01T11:27:52;5.07;65.06
71206;SHT31;58935;54.498;18.544;2022-12-01T11:30:25;5.01;65.41
71206;SHT31;58935;54.498;18.544;2022-12-01T11:32:54;4.96;65.59
71206;SHT31;58935;54.498;18.544;2022-12-01T11:35:23;4.92;65.77
71206;SHT31;58935;54.498;18.544;2022-12-01T11:37:54;4.88;66.07
71206;SHT31;58935;54.498;18.544;2022-12-01T11:40:24;4.86;66.16
71206;SHT31;58935;54.498;18.544;2022-12-01T11:42:53;4.85;66.19
71206;SHT31;58935;54.498;18.544;2022-12-01T11:50:23;4.87;66.25
71206;SHT31;58935;54.498;18.544;2022-12-01T11:52:51;4.88;66.26
71206;SHT31;58935;54.498;18.544;2022-12-01T11:55:19;4.86;66.11
71206;SHT31;58935;54.498;18.544;2022-12-01T11:57:53;4.84;66.22
71206;SHT31;58935;54.498;18.544;2022-12-01T12:00:24;4.83;66.28
71206;SHT31;58935;54.498;18.544;2022-12-01T12:02:59;4.83;66.42
71206;SHT31;58935;54.498;18.544;2022-12-01T12:08:14;4.86;66.22
71206;SHT31;58935;54.498;18.544;2022-12-01T12:10:57;4.86;66.21
71206;SHT31;58935;54.498;18.544;2022-12-01T12:21:28;4.79;66.19
71206;SHT31;58935;54.498;18.544;2022-12-01T12:24:03;4.78;66.23
71206;SHT31;58935;54.498;18.544;2022-12-01T12:26:54;4.78;66.28
71206;SHT31;58935;54.498;18.544;2022-12-01T12:32:05;4.82;66.27
71206;SHT31;58935;54.498;18.544;2022-12-01T12:34:47;4.85;66.27
71206;SHT31;58935;54.498;18.544;2022-12-01T12:37:19;4.83;66.28
71206;SHT31;58935;54.498;18.544;2022-12-01T12:43:32;4.75;66.25
71206;SHT31;58935;54.498;18.544;2022-12-01T12:45:15;4.72;66.21
71206;SHT31;58935;54.498;18.544;2022-12-01T12:47:53;4.72;66.22
71206;SHT31;58935;54.498;18.544;2022-12-01T12:53:27;4.76;66.16
71206;SHT31;58935;54.498;18.544;2022-12-01T12:55:58;4.78;66.27
71206;SHT31;58935;54.498;18.544;2022-12-01T12:58:34;4.79;66.06
71206;SHT31;58935;54.498;18.544;2022-12-01T13:01:09;4.77;66.11
71206;SHT31;58935;54.498;18.544;2022-12-01T13:04:13;4.79;66.18
71206;SHT31;58935;54.498;18.544;2022-12-01T13:06:31;4.83;66.11
71206;SHT31;58935;54.498;18.544;2022-12-01T13:09:03;4.89;66.14
71206;SHT31;58935;54.498;18.544;2022-12-01T13:11:35;4.97;65.95
71206;SHT31;58935;54.498;18.544;2022-12-01T13:16:42;5.04;65.81
71206;SHT31;58935;54.498;18.544;2022-12-01T13:19:13;5.06;65.80
71206;SHT31;58935;54.498;18.544;2022-12-01T13:21:41;5.09;65.71
71206;SHT31;58935;54.498;18.544;2022-12-01T13:24:11;5.10;65.49
71206;SHT31;58935;54.498;18.544;2022-12-01T13:26:42;5.08;65.23
71206;SHT31;58935;54.498;18.544;2022-12-01T13:29:14;5.05;65.12
71206;SHT31;58935;54.498;18.544;2022-12-01T13:31:44;5.01;65.14
71206;SHT31;58935;54.498;18.544;2022-12-01T13:36:59;4.94;65.35
71206;SHT31;58935;54.498;18.544;2022-12-01T13:39:26;4.92;65.54
71206;SHT31;58935;54.498;18.544;2022-12-01T13:42:02;4.93;65.51
71206;SHT31;58935;54.498;18.544;2022-12-01T13:47:28;4.86;65.20
71206;SHT31;58935;54.498;18.544;2022-12-01T13:49:52;4.80;65.36
71206;SHT31;58935;54.498;18.544;2022-12-01T13:52:25;4.77;65.39
71206;SHT31;58935;54.498;18.544;2022-12-01T13:57:25;4.72;65.53
71206;SHT31;58935;54.498;18.544;2022-12-01T14:02:40;4.69;65.77
71206;SHT31;58935;54.498;18.544;2022-12-01T14:07:37;4.72;65.71
71206;SHT31;58935;54.498;18.544;2022-12-01T14:10:34;4.73;65.72
71206;SHT31;58935;54.498;18.544;2022-12-01T14:12:50;4.73;65.62
71206;SHT31;58935;54.498;18.544;2022-12-01T14:15:20;4.72;65.53
71206;SHT31;58935;54.498;18.544;2022-12-01T14:20:26;4.67;65.36
71206;SHT31;58935;54.498;18.544;2022-12-01T14:25:25;4.64;65.50
71206;SHT31;58935;54.498;18.544;2022-12-01T14:27:56;4.64;65.49
71206;SHT31;58935;54.498;18.544;2022-12-01T14:35:26;4.58;65.48
71206;SHT31;58935;54.498;18.544;2022-12-01T14:37:51;4.56;65.45
71206;SHT31;58935;54.498;18.544;2022-12-01T14:40:17;4.52;65.41
71206;SHT31;58935;54.498;18.544;2022-12-01T14:42:47;4.47;65.40
71206;SHT31;58935;54.498;18.544;2022-12-01T14:45:21;4.45;65.63
71206;SHT31;58935;54.498;18.544;2022-12-01T14:47:55;4.46;65.64
71206;SHT31;58935;54.498;18.544;2022-12-01T14:50:27;4.49;65.73
71206;SHT31;58935;54.498;18.544;2022-12-01T14:53:00;4.49;65.64
71206;SHT31;58935;54.498;18.544;2022-12-01T14:55:35;4.50;65.66
71206;SHT31;58935;54.498;18.544;2022-12-01T14:58:04;4.49;65.65
71206;SHT31;58935;54.498;18.544;2022-12-01T15:00:54;4.44;65.55
71206;SHT31;58935;54.498;18.544;2022-12-01T15:03:23;4.40;65.70
71206;SHT31;58935;54.498;18.544;2022-12-01T15:05:54;4.35;65.82
71206;SHT31;58935;54.498;18.544;2022-12-01T15:08:22;4.33;65.94
71206;SHT31;58935;54.498;18.544;2022-12-01T15:10:51;4.29;66.01
71206;SHT31;58935;54.498;18.544;2022-12-01T15:15:54;4.27;66.31
71206;SHT31;58935;54.498;18.544;2022-12-01T15:18:25;4.31;66.25
71206;SHT31;58935;54.498;18.544;2022-12-01T15:23:27;4.32;66.11
71206;SHT31;58935;54.498;18.544;2022-12-01T15:25:55;4.31;66.09
71206;SHT31;58935;54.498;18.544;2022-12-01T15:28:28;4.31;66.03
71206;SHT31;58935;54.498;18.544;2022-12-01T15:30:55;4.33;66.17
71206;SHT31;58935;54.498;18.544;2022-12-01T15:33:24;4.36;66.26
71206;SHT31;58935;54.498;18.544;2022-12-01T15:35:54;4.38;66.19
71206;SHT31;58935;54.498;18.544;2022-12-01T15:38:21;4.32;66.11
71206;SHT31;58935;54.498;18.544;2022-12-01T15:40:49;4.26;66.33
71206;SHT31;58935;54.498;18.544;2022-12-01T15:43:20;4.23;66.52
71206;SHT31;58935;54.498;18.544;2022-12-01T15:53:24;4.17;66.83
71206;SHT31;58935;54.498;18.544;2022-12-01T15:55:53;4.21;67.08
71206;SHT31;58935;54.498;18.544;2022-12-01T15:58:21;4.26;66.96
71206;SHT31;58935;54.498;18.544;2022-12-01T16:01:08;4.27;66.93
71206;SHT31;58935;54.498;18.544;2022-12-01T16:06:10;4.28;66.93
71206;SHT31;58935;54.498;18.544;2022-12-01T16:08:38;4.24;66.96
71206;SHT31;58935;54.498;18.544;2022-12-01T16:18:42;4.23;67.14
71206;SHT31;58935;54.498;18.544;2022-12-01T16:21:18;4.22;67.11
71206;SHT31;58935;54.498;18.544;2022-12-01T16:23:43;4.23;67.16
71206;SHT31;58935;54.498;18.544;2022-12-01T16:26:08;4.24;67.08
71206;SHT31;58935;54.498;18.544;2022-12-01T16:28:34;4.23;66.89
71206;SHT31;58935;54.498;18.544;2022-12-01T16:31:00;4.18;66.84
71206;SHT31;58935;54.498;18.544;2022-12-01T16:33:26;4.15;67.10
71206;SHT31;58935;54.498;18.544;2022-12-01T16:35:53;4.16;67.04
71206;SHT31;58935;54.498;18.544;2022-12-01T16:38:20;4.15;67.05
71206;SHT31;58935;54.498;18.544;2022-12-01T16:40:51;4.14;67.01
71206;SHT31;58935;54.498;18.544;2022-12-01T16:43:19;4.11;66.87
71206;SHT31;58935;54.498;18.544;2022-12-01T16:45:47;4.07;66.85
71206;SHT31;58935;54.498;18.544;2022-12-01T16:48:16;4.04;67.07
71206;SHT31;58935;54.498;18.544;2022-12-01T16:50:44;4.05;67.08
71206;SHT31;58935;54.498;18.544;2022-12-01T16:53:10;4.05;66.99
71206;SHT31;58935;54.498;18.544;2022-12-01T16:58:13;4.03;67.03
71206;SHT31;58935;54.498;18.544;2022-12-01T17:00:39;4.01;67.00
71206;SHT31;58935;54.498;18.544;2022-12-01T17:03:09;3.98;67.03
71206;SHT31;58935;54.498;18.544;2022-12-01T17:05:39;4.00;67.27
71206;SHT31;58935;54.498;18.544;2022-12-01T17:08:04;4.02;67.10
71206;SHT31;58935;54.498;18.544;2022-12-01T17:10:32;4.01;67.08
71206;SHT31;58935;54.498;18.544;2022-12-01T17:12:57;4.03;67.22
71206;SHT31;58935;54.498;18.544;2022-12-01T17:15:23;4.07;67.31
71206;SHT31;58935;54.498;18.544;2022-12-01T17:17:48;4.14;67.26
71206;SHT31;58935;54.498;18.544;2022-12-01T17:20:14;4.19;67.22
71206;SHT31;58935;54.498;18.544;2022-12-01T17:22:39;4.21;66.76
71206;SHT31;58935;54.498;18.544;2022-12-01T17:25:05;4.21;66.77
71206;SHT31;58935;54.498;18.544;2022-12-01T17:27:34;4.21;66.75
71206;SHT31;58935;54.498;18.544;2022-12-01T17:30:00;4.22;66.91
71206;SHT31;58935;54.498;18.544;2022-12-01T17:32:26;4.23;66.74
71206;SHT31;58935;54.498;18.544;2022-12-01T17:34:54;4.18;66.82
71206;SHT31;58935;54.498;18.544;2022-12-01T17:37:20;4.12;67.01
71206;SHT31;58935;54.498;18.544;2022-12-01T17:39:45;4.08;67.23
71206;SHT31;58935;54.498;18.544;2022-12-01T17:42:10;4.05;67.36
71206;SHT31;58935;54.498;18.544;2022-12-01T17:44:36;4.01;67.55